Time;durP1;ratioP1;P1;durP2;ratioP2;P2;SDS_P1;SDS_P2;PMS_P1;PMS_P2;Temp;Humidity;BMP_temperature;BMP_pressure;BME280_temperature;BME280_humidity;BME280_pressure;Samples;Min_cycle;Max_cycle;Signal;HPM_P1;HPM_P2
2022/11/06 04:02:42;;;;;;;1.50;1.05;;;17.80;52.50;;;;;;4916150;28;45523;-63
2022/11/06 04:05:12;;;;;;;1.17;0.90;;;17.80;52.50;;;;;;4902361;28;45292;-62
2022/11/06 04:13:56;;;;;;;1.25;1.15;;;17.80;52.50;;;;;;4900676;28;45623;-63
2022/11/06 04:16:06;;;;;;;1.33;1.10;;;17.80;52.50;;;;;;4866884;28;45218;-60
2022/11/06 04:18:32;;;;;;;1.40;1.20;;;17.80;52.50;;;;;;4911128;28;45035;-60
2022/11/06 04:21:31;;;;;;;0.90;0.80;;;17.80;52.40;;;;;;4923746;28;45798;-62
2022/11/06 04:27:23;;;;;;;1.50;1.20;;;17.80;52.50;;;;;;4911074;28;44994;-63
2022/11/06 04:30:04;;;;;;;1.45;1.20;;;17.80;52.50;;;;;;4928411;28;45458;-62
2022/11/06 04:32:36;;;;;;;1.33;1.00;;;17.80;52.50;;;;;;4906746;28;46003;-64
2022/11/06 04:35:19;;;;;;;1.13;0.98;;;17.80;52.50;;;;;;4914294;28;44667;-63
2022/11/06 04:38:06;;;;;;;1.48;1.17;;;17.80;52.50;;;;;;4914916;28;45445;-65
2022/11/06 04:40:51;;;;;;;1.20;1.10;;;17.80;52.50;;;;;;4925736;28;45076;-63
2022/11/06 04:43:39;;;;;;;1.40;1.17;;;17.80;52.50;;;;;;4923933;28;46022;-63
2022/11/06 04:46:04;;;;;;;2.15;1.10;;;17.80;52.50;;;;;;4916315;28;46151;-63
2022/11/06 04:48:30;;;;;;;1.08;0.98;;;17.70;52.40;;;;;;4893503;28;45268;-64
2022/11/06 04:50:58;;;;;;;1.73;1.20;;;17.70;52.50;;;;;;4894461;28;44960;-63
2022/11/06 04:53:24;;;;;;;1.23;0.90;;;17.70;52.50;;;;;;4896682;28;45967;-64
2022/11/06 04:56:11;;;;;;;1.27;1.00;;;17.70;52.40;;;;;;4907040;28;45540;-62
2022/11/06 04:58:37;;;;;;;1.55;1.15;;;17.70;52.40;;;;;;4915291;28;45777;-63
2022/11/06 05:01:03;;;;;;;1.30;1.20;;;17.70;52.50;;;;;;4908497;28;45475;-64
2022/11/06 05:03:28;;;;;;;0.93;0.85;;;17.70;52.50;;;;;;4916522;28;46325;-62
2022/11/06 05:05:53;;;;;;;1.00;0.90;;;17.70;52.40;;;;;;4928807;28;45221;-63
2022/11/06 05:08:19;;;;;;;1.17;1.02;;;17.70;53.00;;;;;;4929675;28;45528;-63
2022/11/06 05:10:45;;;;;;;1.58;1.20;;;17.70;52.50;;;;;;4928717;28;45621;-63
2022/11/06 05:13:11;;;;;;;1.17;1.02;;;17.70;52.50;;;;;;4930732;28;46024;-63
2022/11/06 05:15:37;;;;;;;1.27;0.90;;;17.70;52.50;;;;;;4932225;28;45481;-63
2022/11/06 05:18:02;;;;;;;1.13;0.93;;;17.70;53.10;;;;;;4930322;28;45209;-63
2022/11/06 05:20:28;;;;;;;1.40;1.13;;;17.70;52.50;;;;;;4929177;28;45676;-63
2022/11/06 05:22:59;;;;;;;1.10;1.00;;;17.70;52.50;;;;;;4910644;28;45499;-64
2022/11/06 05:25:30;;;;;;;1.48;1.15;;;17.70;52.50;;;;;;4928687;28;45319;-63
2022/11/06 05:27:56;;;;;;;1.25;1.15;;;17.70;52.50;;;;;;4933779;28;44745;-63
2022/11/06 05:30:22;;;;;;;1.38;1.23;;;17.70;52.50;;;;;;4928832;28;44712;-63
2022/11/06 05:32:48;;;;;;;1.75;1.40;;;17.70;52.40;;;;;;4932618;28;45722;-63
2022/11/06 05:35:14;;;;;;;1.35;1.15;;;17.70;52.40;;;;;;4933958;28;45355;-64
2022/11/06 05:37:39;;;;;;;1.33;0.95;;;17.60;52.40;;;;;;4930923;28;45179;-62
2022/11/06 05:40:07;;;;;;;1.13;0.90;;;17.60;52.50;;;;;;4933286;28;44860;-63
2022/11/06 05:42:33;;;;;;;1.35;1.10;;;17.60;52.40;;;;;;4928326;28;47146;-64
2022/11/06 05:44:59;;;;;;;1.40;1.13;;;17.60;52.40;;;;;;4914590;28;45694;-63
2022/11/06 05:47:24;;;;;;;1.20;1.00;;;17.60;52.40;;;;;;4926667;28;45320;-61
2022/11/06 05:49:50;;;;;;;1.55;1.13;;;17.60;52.40;;;;;;4928516;28;44926;-61
2022/11/06 05:52:16;;;;;;;1.13;1.00;;;17.60;52.40;;;;;;4930303;28;46868;-61
2022/11/06 05:54:41;;;;;;;1.33;1.02;;;17.60;52.50;;;;;;4929369;28;45279;-63
2022/11/06 05:57:07;;;;;;;1.13;0.80;;;17.60;52.50;;;;;;4932217;28;45714;-63
2022/11/06 05:59:32;;;;;;;1.02;0.88;;;17.60;52.40;;;;;;4932612;28;44894;-63
2022/11/06 06:01:58;;;;;;;0.88;0.88;;;17.60;52.40;;;;;;4926369;28;45943;-63
2022/11/06 06:04:24;;;;;;;1.30;1.20;;;17.60;52.40;;;;;;4926788;28;45466;-64
2022/11/06 06:06:50;;;;;;;1.50;1.10;;;17.60;52.50;;;;;;4930105;28;45748;-63
2022/11/06 06:09:16;;;;;;;1.48;0.98;;;17.60;52.50;;;;;;4926976;28;45192;-65
2022/11/06 06:11:41;;;;;;;1.35;1.10;;;17.60;52.50;;;;;;4906404;28;46135;-64
2022/11/06 06:14:07;;;;;;;1.02;0.93;;;17.60;52.50;;;;;;4915212;28;45424;-64
2022/11/06 06:16:32;;;;;;;1.10;0.95;;;17.60;52.50;;;;;;4933983;28;45204;-63
2022/11/06 06:18:58;;;;;;;1.50;1.17;;;17.60;52.50;;;;;;4932762;28;45126;-64
2022/11/06 06:21:23;;;;;;;1.42;1.08;;;17.60;52.50;;;;;;4929613;28;46422;-63
2022/11/06 06:23:49;;;;;;;1.20;1.00;;;17.60;52.50;;;;;;4929689;28;44956;-62
2022/11/06 06:26:14;;;;;;;1.20;0.95;;;17.60;52.50;;;;;;4928307;28;45343;-64
2022/11/06 06:28:40;;;;;;;1.42;1.00;;;17.60;52.40;;;;;;4934678;28;45555;-63
2022/11/06 06:31:06;;;;;;;0.98;0.90;;;17.60;52.40;;;;;;4929765;28;46357;-63
2022/11/06 06:33:32;;;;;;;1.15;1.00;;;17.50;52.30;;;;;;4922380;28;45296;-63
2022/11/06 06:35:57;;;;;;;1.10;0.90;;;17.60;53.00;;;;;;4914790;28;45221;-62
2022/11/06 06:38:24;;;;;;;1.38;1.10;;;17.60;52.40;;;;;;4928606;28;45370;-62
2022/11/06 06:40:50;;;;;;;1.30;0.93;;;17.60;52.40;;;;;;4932031;28;45476;-62
2022/11/06 06:43:15;;;;;;;1.00;0.90;;;17.60;52.40;;;;;;4931653;28;45563;-61
2022/11/06 06:45:41;;;;;;;1.35;1.10;;;17.60;52.40;;;;;;4933639;28;45756;-62
2022/11/06 06:48:08;;;;;;;1.15;1.00;;;17.50;52.40;;;;;;4921026;28;45172;-62
2022/11/06 06:50:33;;;;;;;1.33;1.00;;;17.60;52.40;;;;;;4914887;28;45591;-60
2022/11/06 06:52:59;;;;;;;0.90;0.85;;;17.60;52.50;;;;;;4933869;28;45593;-61
2022/11/06 06:55:24;;;;;;;1.13;0.90;;;17.50;52.40;;;;;;4930767;28;45269;-63
2022/11/06 06:57:59;;;;;;;1.02;0.90;;;17.50;52.40;;;;;;4922494;28;45587;-62
2022/11/06 07:00:25;;;;;;;1.13;1.02;;;17.50;52.30;;;;;;4901270;28;45536;-64
2022/11/06 07:02:51;;;;;;;1.63;1.20;;;17.50;52.40;;;;;;4934038;28;45470;-62
2022/11/06 07:05:17;;;;;;;1.00;0.90;;;17.60;52.40;;;;;;4934391;28;45329;-62
2022/11/06 07:07:42;;;;;;;1.15;1.00;;;17.50;52.30;;;;;;4934934;28;45253;-64
2022/11/06 07:10:08;;;;;;;1.25;0.98;;;17.50;52.30;;;;;;4931233;28;45960;-63
2022/11/06 07:12:33;;;;;;;1.10;1.00;;;17.50;52.40;;;;;;4925605;28;45443;-62
2022/11/06 07:14:59;;;;;;;1.20;1.10;;;17.50;52.30;;;;;;4935519;28;45264;-63
2022/11/06 07:17:24;;;;;;;0.80;0.80;;;17.50;52.40;;;;;;4935905;28;45313;-62
2022/11/06 07:19:50;;;;;;;1.40;1.15;;;17.50;52.40;;;;;;4915718;28;46166;-62
2022/11/06 07:22:16;;;;;;;1.23;0.98;;;17.50;52.40;;;;;;4926813;28;45033;-62
2022/11/06 07:24:41;;;;;;;1.42;1.10;;;17.50;52.40;;;;;;4919717;28;45342;-63
2022/11/06 07:27:07;;;;;;;1.48;1.20;;;17.50;53.00;;;;;;4929081;28;46279;-63
2022/11/06 07:29:32;;;;;;;1.40;1.08;;;17.50;52.40;;;;;;4934043;28;46175;-63
2022/11/06 07:31:58;;;;;;;1.30;1.20;;;17.50;52.40;;;;;;4927917;28;45655;-63
2022/11/06 07:34:23;;;;;;;1.15;1.05;;;17.50;52.40;;;;;;4929854;28;45538;-63
2022/11/06 07:36:49;;;;;;;1.80;1.17;;;17.50;52.40;;;;;;4929792;28;45322;-62
2022/11/06 07:39:14;;;;;;;1.20;0.90;;;17.50;52.40;;;;;;4933198;28;46170;-63
2022/11/06 07:41:40;;;;;;;1.00;0.90;;;17.50;52.40;;;;;;4936221;28;45216;-63
2022/11/06 07:44:06;;;;;;;1.05;0.90;;;17.50;52.40;;;;;;4936947;28;45254;-63
2022/11/06 07:46:31;;;;;;;1.17;1.08;;;17.40;52.40;;;;;;4932744;28;45188;-60
2022/11/06 07:48:57;;;;;;;1.20;1.10;;;17.50;52.40;;;;;;4929765;28;46144;-61
2022/11/06 07:51:22;;;;;;;1.30;0.90;;;17.50;52.40;;;;;;4934274;28;45404;-62
2022/11/06 07:53:48;;;;;;;1.17;1.00;;;17.40;52.40;;;;;;4929720;28;45248;-62
2022/11/06 07:56:13;;;;;;;0.98;0.88;;;17.40;52.40;;;;;;4916956;28;44854;-63
2022/11/06 07:58:39;;;;;;;0.95;0.90;;;17.40;52.40;;;;;;4932936;28;45895;-63
2022/11/06 08:01:04;;;;;;;1.02;0.93;;;17.40;52.40;;;;;;4932216;28;45237;-62
2022/11/06 08:03:30;;;;;;;1.40;1.00;;;17.50;52.40;;;;;;4933956;28;45203;-63
2022/11/06 08:06:02;;;;;;;1.00;0.85;;;17.40;52.30;;;;;;4931605;28;45595;-62
2022/11/06 08:08:27;;;;;;;1.15;0.95;;;17.40;52.30;;;;;;4930599;28;46028;-63
2022/11/06 08:10:53;;;;;;;0.70;0.70;;;17.40;52.30;;;;;;4932073;28;44665;-63
2022/11/06 08:13:20;;;;;;;1.30;0.93;;;17.50;52.30;;;;;;4933404;28;45285;-61
2022/11/06 08:15:46;;;;;;;0.80;0.80;;;17.40;52.30;;;;;;4933323;28;45247;-63
2022/11/06 08:18:11;;;;;;;1.00;0.90;;;17.40;52.30;;;;;;4912449;28;47055;-64
2022/11/06 08:20:37;;;;;;;1.83;1.20;;;17.40;52.30;;;;;;4933546;28;45363;-62
2022/11/06 08:23:04;;;;;;;0.98;0.82;;;17.40;52.30;;;;;;4914137;28;45464;-62
2022/11/06 08:25:30;;;;;;;1.50;1.23;;;17.40;52.30;;;;;;4929315;28;44911;-62
2022/11/06 08:27:56;;;;;;;1.35;1.20;;;17.40;52.30;;;;;;4911973;28;46792;-60
2022/11/06 08:30:22;;;;;;;1.17;1.08;;;17.40;52.30;;;;;;4934611;28;45634;-61
2022/11/06 08:32:48;;;;;;;0.80;0.80;;;17.40;52.30;;;;;;4936572;28;45285;-62
2022/11/06 08:35:13;;;;;;;0.80;0.80;;;17.40;52.30;;;;;;4932149;28;45130;-61
2022/11/06 08:37:39;;;;;;;1.00;0.90;;;17.40;52.30;;;;;;4932228;28;45387;-61
2022/11/06 08:40:06;;;;;;;1.50;0.90;;;17.40;52.30;;;;;;4935426;28;45319;-62
2022/11/06 08:42:31;;;;;;;1.30;1.00;;;17.40;52.30;;;;;;4933107;28;44971;-63
2022/11/06 08:44:57;;;;;;;1.27;1.00;;;17.40;52.30;;;;;;4932948;28;45233;-62
2022/11/06 08:47:22;;;;;;;0.73;0.73;;;17.40;52.30;;;;;;4928294;28;45181;-63
2022/11/06 08:49:48;;;;;;;1.17;1.05;;;17.40;52.30;;;;;;4934519;28;44631;-62
2022/11/06 08:52:13;;;;;;;1.20;0.98;;;17.40;52.30;;;;;;4928754;28;45076;-62
2022/11/06 08:54:39;;;;;;;1.38;0.95;;;17.40;52.30;;;;;;4920969;28;45620;-63
2022/11/06 08:57:05;;;;;;;1.05;0.80;;;17.40;52.30;;;;;;4927907;28;47116;-62
2022/11/06 08:59:31;;;;;;;0.77;0.68;;;17.40;52.30;;;;;;4935075;28;45081;-62
2022/11/06 09:01:57;;;;;;;1.00;0.80;;;17.40;52.40;;;;;;4931809;28;44637;-63
2022/11/06 09:04:23;;;;;;;1.00;0.88;;;17.40;52.30;;;;;;4927744;28;46414;-62
2022/11/06 09:06:48;;;;;;;1.23;1.10;;;17.40;52.20;;;;;;4927150;28;46996;-64
2022/11/06 09:09:14;;;;;;;1.10;1.00;;;17.40;52.20;;;;;;4932318;28;45364;-64
2022/11/06 09:11:39;;;;;;;1.00;0.90;;;17.40;52.30;;;;;;4929759;28;45208;-64
2022/11/06 09:14:05;;;;;;;1.42;1.30;;;17.40;52.30;;;;;;4923011;28;45478;-63
2022/11/06 09:16:31;;;;;;;1.00;0.90;;;17.40;52.20;;;;;;4925350;28;45340;-63
2022/11/06 09:18:56;;;;;;;1.20;0.80;;;17.40;52.30;;;;;;4910376;28;44716;-64
2022/11/06 09:21:22;;;;;;;1.05;0.95;;;17.40;52.20;;;;;;4928671;28;45270;-61
2022/11/06 09:23:47;;;;;;;1.20;1.00;;;17.40;52.20;;;;;;4933631;28;45828;-61
2022/11/06 09:26:13;;;;;;;1.15;0.80;;;17.40;52.30;;;;;;4911734;28;48717;-63
2022/11/06 09:28:39;;;;;;;0.70;0.70;;;17.40;52.20;;;;;;4932491;28;45495;-61
2022/11/06 09:31:05;;;;;;;0.82;0.70;;;17.40;52.20;;;;;;4927661;28;45250;-61
2022/11/06 09:33:31;;;;;;;0.70;0.70;;;17.40;52.20;;;;;;4932631;28;45314;-63
2022/11/06 09:35:56;;;;;;;0.68;0.63;;;17.40;52.20;;;;;;4924236;28;46233;-61
2022/11/06 09:38:22;;;;;;;1.17;1.00;;;17.40;52.30;;;;;;4905306;28;45253;-62
2022/11/06 09:40:53;;;;;;;1.00;0.90;;;17.40;52.30;;;;;;4926216;28;45220;-62
2022/11/06 09:43:19;;;;;;;1.10;0.90;;;17.40;52.20;;;;;;4897012;28;45561;-64
2022/11/06 09:45:44;;;;;;;0.77;0.77;;;17.40;52.20;;;;;;4930930;28;46136;-62
2022/11/06 09:48:10;;;;;;;1.10;0.93;;;17.40;52.30;;;;;;4897570;28;45245;-63
2022/11/06 09:50:46;;;;;;;1.15;1.05;;;17.40;52.20;;;;;;4934349;28;45138;-63
2022/11/06 09:53:18;;;;;;;1.02;0.90;;;17.40;52.20;;;;;;4900168;28;45864;-63
2022/11/06 09:55:44;;;;;;;1.35;0.90;;;17.40;52.20;;;;;;4894782;28;47160;-63
2022/11/06 09:58:30;;;;;;;1.35;0.90;;;17.40;52.20;;;;;;4898740;28;45484;-60
2022/11/06 10:00:56;;;;;;;1.13;0.98;;;17.40;52.10;;;;;;4909413;28;45737;-61
2022/11/06 10:03:32;;;;;;;1.20;1.02;;;17.40;52.20;;;;;;4902134;28;44752;-64
2022/11/06 10:05:57;;;;;;;1.10;1.00;;;17.40;52.20;;;;;;4888931;28;46256;-62
2022/11/06 10:08:25;;;;;;;1.02;0.93;;;17.40;52.10;;;;;;4930271;28;44716;-63
2022/11/06 10:11:13;;;;;;;1.08;0.98;;;17.40;52.10;;;;;;4912357;28;45373;-63
2022/11/06 10:14:00;;;;;;;0.85;0.70;;;17.40;52.00;;;;;;4935101;28;45593;-63
2022/11/06 10:16:28;;;;;;;1.00;0.90;;;17.40;52.10;;;;;;4934986;28;46160;-62
2022/11/06 10:19:02;;;;;;;0.98;0.85;;;17.40;52.10;;;;;;4922772;28;45303;-62
2022/11/06 10:21:30;;;;;;;;;;;17.40;52.20;;;;;;4932241;28;44993;-62
2022/11/06 10:24:00;;;;;;;1.15;0.90;;;17.30;52.10;;;;;;4917348;28;45297;-62
2022/11/06 10:26:34;;;;;;;0.77;0.70;;;17.30;52.10;;;;;;4894022;28;46926;-62
2022/11/06 10:29:29;;;;;;;0.85;0.85;;;17.30;52.10;;;;;;4906980;28;45236;-62
2022/11/06 10:32:07;;;;;;;1.08;0.88;;;17.40;52.10;;;;;;4911380;28;46198;-63
2022/11/06 10:34:38;;;;;;;1.90;1.00;;;17.40;52.10;;;;;;4896843;28;46658;-63
2022/11/06 10:37:07;;;;;;;1.17;0.95;;;17.40;52.10;;;;;;4917796;28;45839;-62
2022/11/06 10:39:34;;;;;;;0.90;0.80;;;17.40;52.10;;;;;;4913907;28;45378;-62
2022/11/06 10:42:04;;;;;;;0.75;0.63;;;17.40;52.10;;;;;;4935778;28;45327;-63
2022/11/06 10:44:37;;;;;;;0.75;0.70;;;17.40;52.00;;;;;;4921069;28;45323;-62
2022/11/06 10:47:14;;;;;;;0.82;0.82;;;17.40;52.00;;;;;;4899488;28;45905;-63
2022/11/06 10:49:46;;;;;;;1.00;0.90;;;17.40;52.00;;;;;;4921047;28;45835;-61
2022/11/06 10:52:31;;;;;;;1.52;0.90;;;17.40;52.00;;;;;;4902923;28;45513;-65
2022/11/06 10:54:56;;;;;;;1.08;0.90;;;17.40;52.10;;;;;;4933211;28;45446;-62
2022/11/06 10:57:45;;;;;;;1.00;0.82;;;17.40;52.00;;;;;;4930434;28;45231;-62
2022/11/06 11:00:12;;;;;;;1.00;0.95;;;17.40;52.00;;;;;;4930592;28;45488;-63
2022/11/06 11:02:39;;;;;;;1.02;0.90;;;17.40;52.00;;;;;;4932199;28;45573;-61
2022/11/06 11:05:13;;;;;;;1.05;0.95;;;17.40;52.00;;;;;;4936881;28;45534;-62
2022/11/06 11:07:38;;;;;;;1.15;1.00;;;17.40;52.00;;;;;;4938099;28;46011;-61
2022/11/06 11:10:40;;;;;;;0.98;0.90;;;17.30;52.00;;;;;;4905474;28;45271;-60
2022/11/06 11:13:10;;;;;;;0.75;0.70;;;17.40;52.00;;;;;;4857071;29;45513;-61
2022/11/06 11:15:45;;;;;;;1.23;0.90;;;17.40;52.00;;;;;;4895302;28;46216;-63
2022/11/06 11:18:11;;;;;;;0.82;0.82;;;17.40;52.00;;;;;;4921801;28;46439;-62
2022/11/06 11:20:37;;;;;;;;;;;17.40;52.10;;;;;;4930091;28;45530;-62
2022/11/06 11:23:21;;;;;;;0.65;0.65;;;17.30;52.00;;;;;;4931909;28;45671;-63
2022/11/06 11:25:51;;;;;;;0.88;0.73;;;17.40;52.00;;;;;;4934044;28;45433;-62
2022/11/06 11:28:21;;;;;;;1.15;1.05;;;17.40;52.00;;;;;;4932076;28;45439;-62
2022/11/06 11:31:12;;;;;;;1.35;1.00;;;17.40;51.90;;;;;;4916550;28;44720;-62
2022/11/06 11:33:38;;;;;;;0.80;0.80;;;17.40;51.80;;;;;;4904231;28;45109;-62
2022/11/06 11:36:05;;;;;;;1.13;0.80;;;17.40;51.80;;;;;;4918414;28;44685;-62
2022/11/06 11:38:31;;;;;;;1.75;0.90;;;17.50;51.80;;;;;;4918430;28;46004;-61
2022/11/06 11:41:07;;;;;;;1.20;0.90;;;17.50;51.80;;;;;;4893933;28;45258;-60
2022/11/06 11:43:33;;;;;;;1.40;1.08;;;17.50;51.80;;;;;;4910452;28;45733;-62
2022/11/06 11:46:04;;;;;;;1.30;1.00;;;17.50;51.70;;;;;;4931836;28;45594;-60
2022/11/06 11:48:43;;;;;;;1.15;0.93;;;17.40;51.70;;;;;;4921344;28;45971;-58
2022/11/06 11:51:27;;;;;;;1.23;1.00;;;17.40;51.70;;;;;;4928581;28;44848;-62
2022/11/06 11:54:14;;;;;;;1.40;0.88;;;17.50;51.70;;;;;;4935265;28;45308;-60
2022/11/06 11:56:56;;;;;;;3.30;1.02;;;17.50;51.60;;;;;;4934080;28;45502;-60
2022/11/06 11:59:45;;;;;;;0.85;0.85;;;17.50;51.60;;;;;;4915745;28;46208;-62
2022/11/06 12:02:13;;;;;;;1.10;0.90;;;17.50;51.60;;;;;;4921651;28;45256;-58
2022/11/06 12:04:40;;;;;;;1.33;1.00;;;17.50;51.60;;;;;;4920385;28;45167;-61
2022/11/06 12:07:07;;;;;;;0.90;0.90;;;17.60;51.50;;;;;;4909654;28;45250;-61
2022/11/06 12:09:40;;;;;;;2.13;1.10;;;17.80;51.40;;;;;;4886770;28;45110;-63
2022/11/06 12:12:05;;;;;;;4.85;0.77;;;18.00;51.20;;;;;;4889244;28;45191;-64
2022/11/06 12:14:33;;;;;;;0.63;0.63;;;18.10;50.90;;;;;;4920915;28;45058;-63
2022/11/06 12:17:09;;;;;;;1.00;0.85;;;18.30;50.70;;;;;;4936633;28;45324;-63
2022/11/06 12:19:35;;;;;;;0.80;0.77;;;18.50;50.60;;;;;;4909080;28;46135;-63
2022/11/06 12:22:04;;;;;;;2.15;0.80;;;18.60;50.40;;;;;;4915757;28;45292;-63
2022/11/06 12:24:38;;;;;;;1.17;0.70;;;18.80;50.20;;;;;;4934212;28;45174;-62
2022/11/06 12:27:05;;;;;;;0.90;0.75;;;18.90;50.10;;;;;;4934422;28;45482;-63
2022/11/06 12:29:33;;;;;;;0.80;0.77;;;19.10;50.00;;;;;;4926688;28;46114;-64
2022/11/06 12:32:36;;;;;;;1.00;0.75;;;19.30;49.80;;;;;;4896150;28;45193;-64
2022/11/06 12:35:17;;;;;;;2.88;0.90;;;19.40;49.50;;;;;;4903072;28;46349;-63
2022/11/06 12:38:20;;;;;;;1.00;0.82;;;19.60;49.50;;;;;;4913627;28;46454;-63
2022/11/06 12:40:50;;;;;;;1.02;0.88;;;19.80;49.30;;;;;;4933422;28;45633;-63
2022/11/06 12:43:39;;;;;;;1.23;1.00;;;19.90;49.40;;;;;;4890039;28;46361;-63
2022/11/06 12:46:30;;;;;;;0.80;0.70;;;20.00;49.20;;;;;;4915619;28;45425;-62
2022/11/06 12:49:14;;;;;;;1.65;0.88;;;20.20;49.00;;;;;;4937537;28;45561;-63
2022/11/06 12:52:14;;;;;;;1.70;0.65;;;20.30;49.20;;;;;;4929333;28;46414;-62
2022/11/06 12:55:01;;;;;;;0.73;0.60;;;20.40;48.80;;;;;;4919133;28;45234;-63
2022/11/06 12:57:36;;;;;;;1.83;0.77;;;20.50;49.00;;;;;;4935559;28;44867;-65
2022/11/06 13:00:14;;;;;;;1.50;0.70;;;20.70;49.00;;;;;;4935720;28;45260;-63
2022/11/06 13:03:01;;;;;;;0.90;0.75;;;20.80;48.90;;;;;;4933374;28;46175;-63
2022/11/06 13:05:53;;;;;;;0.70;0.60;;;20.80;48.20;;;;;;4928695;28;45158;-63
2022/11/06 13:08:25;;;;;;;1.08;0.90;;;20.80;48.30;;;;;;4915038;28;45235;-63
2022/11/06 13:11:09;;;;;;;1.23;0.90;;;20.80;48.50;;;;;;4926345;28;45438;-62
2022/11/06 13:14:12;;;;;;;0.82;0.70;;;20.80;48.60;;;;;;4909710;28;45979;-64
2022/11/06 13:16:49;;;;;;;1.05;0.90;;;20.70;48.30;;;;;;4921926;28;45621;-63
2022/11/06 13:19:24;;;;;;;0.95;0.73;;;20.70;48.60;;;;;;4936876;28;45403;-63
2022/11/06 13:21:55;;;;;;;1.17;0.70;;;20.60;48.60;;;;;;4921955;28;45680;-63
2022/11/06 13:24:43;;;;;;;0.70;0.70;;;20.60;48.90;;;;;;4921683;28;45994;-63
2022/11/06 13:27:30;;;;;;;1.00;0.70;;;20.60;48.50;;;;;;4920308;28;45558;-63
2022/11/06 13:30:00;;;;;;;1.08;0.80;;;20.50;48.80;;;;;;4900233;28;45210;-63
2022/11/06 13:32:26;;;;;;;0.82;0.82;;;20.40;48.90;;;;;;4914410;28;45322;-63
2022/11/06 13:34:52;;;;;;;1.08;0.98;;;20.40;49.10;;;;;;4921529;28;47322;-63
2022/11/06 13:37:48;;;;;;;0.65;0.65;;;20.40;49.10;;;;;;4904897;28;46584;-63
2022/11/06 13:40:41;;;;;;;1.20;0.93;;;20.30;48.60;;;;;;4935436;28;44777;-62
2022/11/06 13:43:13;;;;;;;1.20;0.75;;;20.30;48.80;;;;;;4920232;28;45308;-62
2022/11/06 13:45:57;;;;;;;0.90;0.80;;;20.30;49.00;;;;;;4913306;28;46079;-61
2022/11/06 13:48:26;;;;;;;;;;;20.20;49.00;;;;;;4932149;28;45637;-61
2022/11/06 13:51:11;;;;;;;1.33;0.90;;;20.20;48.80;;;;;;4934951;28;46257;-62
2022/11/06 13:53:49;;;;;;;1.10;0.63;;;20.20;48.90;;;;;;4922024;28;45035;-62
2022/11/06 13:56:43;;;;;;;1.10;0.95;;;20.10;49.10;;;;;;4931496;28;46196;-63
2022/11/06 13:59:27;;;;;;;1.60;1.00;;;20.10;48.80;;;;;;4920567;28;45831;-62
2022/11/06 14:01:59;;;;;;;3.13;0.93;;;20.10;49.10;;;;;;4929713;28;45578;-61
2022/11/06 14:04:40;;;;;;;1.05;0.77;;;20.10;49.20;;;;;;4918616;28;45234;-62
2022/11/06 14:07:06;;;;;;;1.35;1.00;;;20.00;49.00;;;;;;4918014;28;46593;-61
2022/11/06 14:09:32;;;;;;;1.33;1.13;;;20.00;49.20;;;;;;4915198;28;46099;-61
2022/11/06 14:12:00;;;;;;;1.10;0.90;;;20.00;49.20;;;;;;4921802;28;45479;-61
2022/11/06 14:14:27;;;;;;;1.98;0.95;;;19.90;49.20;;;;;;4916872;28;44816;-63
2022/11/06 14:17:16;;;;;;;1.73;1.00;;;19.90;49.20;;;;;;4933913;28;46085;-61
2022/11/06 14:19:47;;;;;;;0.95;0.80;;;19.90;49.10;;;;;;4938199;28;45514;-61
2022/11/06 14:22:35;;;;;;;1.33;0.80;;;19.80;49.30;;;;;;4933098;28;45254;-63
2022/11/06 14:25:26;;;;;;;1.02;0.77;;;19.80;49.20;;;;;;4920330;28;44808;-61
2022/11/06 14:27:51;;;;;;;0.82;0.80;;;19.80;49.20;;;;;;4936452;28;45981;-61
2022/11/06 14:30:37;;;;;;;2.78;0.80;;;19.70;49.40;;;;;;4926300;28;45192;-61
2022/11/06 14:33:10;;;;;;;1.30;0.88;;;19.70;49.30;;;;;;4935678;28;45667;-61
2022/11/06 14:35:36;;;;;;;1.92;0.82;;;19.70;49.40;;;;;;4904530;28;45401;-63
2022/11/06 14:38:08;;;;;;;2.13;0.88;;;19.70;49.50;;;;;;4935785;28;46201;-62
2022/11/06 14:40:33;;;;;;;1.52;1.02;;;19.70;49.40;;;;;;4931439;28;45408;-62
2022/11/06 14:42:59;;;;;;;2.33;0.88;;;19.60;49.50;;;;;;4932866;28;45225;-61
2022/11/06 14:45:26;;;;;;;1.00;0.90;;;19.60;49.50;;;;;;4938047;28;45547;-62
2022/11/06 14:47:53;;;;;;;1.23;0.85;;;19.60;49.60;;;;;;4899172;28;47316;-62
2022/11/06 14:50:18;;;;;;;1.42;0.90;;;19.50;49.60;;;;;;4930179;28;45580;-62
2022/11/06 14:53:05;;;;;;;0.77;0.77;;;19.50;49.70;;;;;;4930745;28;44650;-62
2022/11/06 14:55:57;;;;;;;0.85;0.80;;;19.40;49.60;;;;;;4908362;28;46194;-63
2022/11/06 14:58:33;;;;;;;2.13;0.93;;;19.40;49.70;;;;;;4919230;28;45537;-62
2022/11/06 15:01:14;;;;;;;1.88;0.85;;;19.40;49.80;;;;;;4909078;28;45287;-61
2022/11/06 15:03:48;;;;;;;0.90;0.73;;;19.40;49.90;;;;;;4916119;28;45508;-62
2022/11/06 15:06:17;;;;;;;1.00;0.70;;;19.30;49.90;;;;;;4913040;28;45283;-61
2022/11/06 15:08:45;;;;;;;1.23;0.93;;;19.30;49.90;;;;;;4930383;28;45653;-63
2022/11/06 15:11:48;;;;;;;1.05;0.90;;;19.30;49.90;;;;;;4934300;28;45133;-61
2022/11/06 15:14:14;;;;;;;1.10;1.00;;;19.30;49.90;;;;;;4928050;28;45214;-63
2022/11/06 15:16:50;;;;;;;0.98;0.88;;;19.20;50.00;;;;;;4916845;28;46096;-62
2022/11/06 15:19:18;;;;;;;1.30;1.00;;;19.20;50.00;;;;;;4899754;28;46171;-60
2022/11/06 15:22:04;;;;;;;0.95;0.85;;;19.20;50.00;;;;;;4906030;28;45275;-62
2022/11/06 15:24:37;;;;;;;1.17;0.90;;;19.20;50.00;;;;;;4926875;28;44996;-62
2022/11/06 15:27:15;;;;;;;1.33;0.90;;;19.10;50.10;;;;;;4930987;28;45073;-62
2022/11/06 15:29:40;;;;;;;1.10;1.00;;;19.10;50.10;;;;;;4911491;28;47060;-61
2022/11/06 15:32:23;;;;;;;1.15;0.90;;;19.10;50.20;;;;;;4901313;28;45588;-62
2022/11/06 15:34:54;;;;;;;1.13;1.03;;;19.10;50.20;;;;;;4918100;28;44845;-62
2022/11/06 15:37:22;;;;;;;1.45;0.98;;;19.00;50.20;;;;;;4896006;28;45578;-62
2022/11/06 15:39:54;;;;;;;1.25;0.90;;;19.00;50.20;;;;;;4893953;28;47086;-60
2022/11/06 15:42:23;;;;;;;2.95;0.88;;;19.00;50.30;;;;;;4930784;28;45512;-63
2022/11/06 15:44:49;;;;;;;1.27;0.90;;;19.00;50.30;;;;;;4905106;28;45219;-63
2022/11/06 15:47:18;;;;;;;2.55;0.80;;;19.00;50.30;;;;;;4915384;28;45238;-62
2022/11/06 15:49:44;;;;;;;1.25;0.75;;;18.90;50.20;;;;;;4929311;28;45997;-62
2022/11/06 15:52:17;;;;;;;1.23;1.05;;;18.90;50.30;;;;;;4898432;28;45591;-63
2022/11/06 15:54:43;;;;;;;;;;;18.90;50.40;;;;;;4925927;28;45369;-63
2022/11/06 15:57:24;;;;;;;1.00;0.80;;;18.90;50.40;;;;;;4921048;28;45436;-62
2022/11/06 15:59:50;;;;;;;2.70;0.80;;;18.80;50.30;;;;;;4921470;28;45947;-61
2022/11/06 16:02:21;;;;;;;1.00;0.90;;;18.80;50.40;;;;;;4914718;28;45454;-63
2022/11/06 16:04:46;;;;;;;1.10;1.00;;;18.80;50.40;;;;;;4914712;28;45415;-63
2022/11/06 16:07:12;;;;;;;1.08;0.90;;;18.80;50.40;;;;;;4933345;28;45235;-62
2022/11/06 16:09:42;;;;;;;1.60;1.00;;;18.70;50.40;;;;;;4900777;28;45369;-63
2022/11/06 16:12:14;;;;;;;1.10;0.90;;;18.80;50.50;;;;;;4913808;28;44743;-63
2022/11/06 16:14:43;;;;;;;2.17;1.30;;;18.70;50.40;;;;;;4929312;28;45432;-63
2022/11/06 16:17:26;;;;;;;1.27;1.00;;;18.70;50.50;;;;;;4903874;28;46186;-62
2022/11/06 16:19:53;;;;;;;2.67;1.00;;;18.70;50.50;;;;;;4891996;28;46380;-60
2022/11/06 16:22:20;;;;;;;0.70;0.70;;;18.70;50.60;;;;;;4913588;28;45054;-62
2022/11/06 16:24:51;;;;;;;1.25;1.15;;;18.70;50.60;;;;;;4916290;28;45278;-62
2022/11/06 16:27:17;;;;;;;1.00;0.90;;;18.70;50.60;;;;;;4907437;28;45421;-62
2022/11/06 16:30:02;;;;;;;1.10;0.90;;;18.60;50.60;;;;;;4886355;28;46242;-62
2022/11/06 16:32:29;;;;;;;0.88;0.77;;;18.60;50.60;;;;;;4912832;28;45440;-62
2022/11/06 16:34:54;;;;;;;0.77;0.73;;;18.60;50.60;;;;;;4916055;28;45167;-64
2022/11/06 16:37:26;;;;;;;1.75;1.13;;;18.60;50.60;;;;;;4927090;28;45300;-62
2022/11/06 16:39:52;;;;;;;1.88;1.10;;;18.50;50.60;;;;;;4919451;28;45515;-63
2022/11/06 16:42:25;;;;;;;1.00;0.90;;;18.50;50.70;;;;;;4892398;28;45349;-62
2022/11/06 16:45:01;;;;;;;1.52;1.25;;;18.50;50.70;;;;;;4926883;28;44591;-63
2022/11/06 16:47:26;;;;;;;1.08;0.95;;;18.50;50.70;;;;;;4912457;28;45237;-61
2022/11/06 16:49:56;;;;;;;1.00;0.90;;;18.50;50.70;;;;;;4914705;28;46057;-63
2022/11/06 16:52:28;;;;;;;1.00;0.90;;;18.50;50.80;;;;;;4930331;28;45687;-62
2022/11/06 16:55:12;;;;;;;1.23;1.03;;;18.50;50.80;;;;;;4931758;28;45003;-62
2022/11/06 16:57:45;;;;;;;1.00;0.90;;;18.40;50.80;;;;;;4916262;28;45615;-61
2022/11/06 17:00:20;;;;;;;0.75;0.70;;;18.40;50.80;;;;;;4913508;28;45979;-62
2022/11/06 17:03:06;;;;;;;1.05;0.82;;;18.40;50.90;;;;;;4927493;28;45280;-63
2022/11/06 17:05:36;;;;;;;0.90;0.90;;;18.40;50.90;;;;;;4908802;28;45447;-62
2022/11/06 17:08:16;;;;;;;1.00;0.90;;;18.40;50.90;;;;;;4891417;28;45514;-62
2022/11/06 17:10:45;;;;;;;0.93;0.80;;;18.40;50.90;;;;;;4925840;28;46201;-61
2022/11/06 17:13:12;;;;;;;1.60;0.85;;;18.40;50.90;;;;;;4908259;28;45260;-61
2022/11/06 17:15:38;;;;;;;0.88;0.80;;;18.30;50.90;;;;;;4927717;28;45325;-61
2022/11/06 17:18:04;;;;;;;1.00;0.80;;;18.30;50.90;;;;;;4916689;28;45191;-65
2022/11/06 17:20:30;;;;;;;1.77;1.05;;;18.30;51.60;;;;;;4930309;28;45385;-62